createdAt,value
2017-04-08T00:00:41.524Z,98.09
2017-04-08T00:01:41.501Z,97.9
2017-04-08T00:02:41.792Z,98.09
2017-04-08T00:03:41.471Z,98.09
2017-04-08T00:04:41.754Z,97.99
2017-04-08T00:05:41.424Z,98.18
2017-04-08T00:06:41.720Z,98.09
2017-04-08T00:07:41.693Z,97.9
2017-04-08T00:08:41.691Z,97.8
2017-04-08T00:09:41.354Z,97.52
2017-04-08T00:10:41.641Z,97.9
2017-04-08T00:11:41.627Z,98.28
2017-04-08T00:12:41.313Z,97.61
2017-04-08T00:13:41.601Z,98.47
2017-04-08T00:14:41.571Z,98.66
2017-04-08T00:15:41.561Z,98.75
2017-04-08T00:16:41.545Z,98.66
2017-04-08T00:17:41.518Z,98.47
2017-04-08T00:18:41.506Z,98.47
2017-04-08T00:19:41.481Z,98.66
2017-04-08T00:20:41.462Z,98.85
2017-04-08T00:21:41.443Z,98.75
2017-04-08T00:22:41.442Z,98.57
2017-04-08T00:23:41.411Z,99.14
2017-04-08T00:24:41.084Z,99.24
2017-04-08T00:25:41.382Z,99.14
2017-04-08T00:26:41.063Z,99.33
2017-04-08T00:27:41.337Z,99.33
2017-04-08T00:28:41.054Z,99.24
2017-04-08T00:29:41.299Z,99.14
2017-04-08T00:30:41.283Z,99.14
2017-04-08T00:31:41.263Z,99.04
2017-04-08T00:32:40.933Z,99.24
2017-04-08T00:33:40.929Z,99.14
2017-04-08T00:34:41.254Z,99.04
2017-04-08T00:35:41.192Z,99.04
2017-04-08T00:36:41.162Z,99.81
2017-04-08T00:37:41.156Z,99.62
2017-04-08T00:38:40.833Z,99.52
2017-04-08T00:39:41.130Z,99.9
2017-04-08T00:40:41.143Z,99.99
2017-04-08T00:41:41.088Z,99.99
2017-04-08T00:42:41.083Z,99.99
2017-04-08T00:43:41.047Z,99.99
2017-04-08T00:44:41.032Z,99.99
2017-04-08T00:45:41.002Z,99.99
2017-04-08T00:46:41.001Z,99.99
2017-04-08T00:47:40.997Z,99.99
2017-04-08T00:48:40.972Z,99.99
2017-04-08T00:49:41.021Z,99.99
2017-04-08T00:50:40.618Z,99.99
2017-04-08T00:51:40.983Z,99.99
2017-04-08T00:52:40.876Z,99.99
2017-04-08T00:53:40.562Z,99.99
2017-04-08T00:54:40.531Z,99.99
2017-04-08T00:55:40.518Z,99.99
2017-04-08T00:56:40.492Z,99.99
2017-04-08T00:57:40.791Z,99.99
2017-04-08T00:58:40.468Z,99.99
2017-04-08T00:59:40.753Z,99.99
2017-04-08T01:00:40.753Z,99.99
2017-04-08T01:01:40.730Z,99.99
2017-04-08T01:02:40.690Z,99.99
2017-04-08T01:03:40.672Z,99.99
2017-04-08T01:04:40.664Z,99.99
2017-04-08T01:05:40.329Z,99.99
2017-04-08T01:06:40.621Z,99.99
2017-04-08T01:07:40.606Z,99.99
2017-04-08T01:08:40.276Z,99.99
2017-04-08T01:09:40.557Z,99.99
2017-04-08T01:10:40.541Z,99.99
2017-04-08T01:11:40.543Z,99.99
2017-04-08T01:12:40.506Z,99.99
2017-04-08T01:13:40.503Z,99.99
2017-04-08T01:14:40.161Z,99.99
2017-04-08T01:15:40.143Z,99.99
2017-04-08T01:16:40.431Z,99.99
2017-04-08T01:17:40.103Z,99.99
2017-04-08T01:18:40.392Z,99.99
2017-04-08T01:19:40.383Z,99.99
2017-04-08T01:20:40.362Z,99.99
2017-04-08T01:21:40.344Z,99.99
2017-04-08T01:22:40.324Z,99.99
2017-04-08T01:23:40.299Z,99.99
2017-04-08T01:24:39.982Z,99.99
2017-04-08T01:25:39.958Z,99.99
2017-04-08T01:26:40.241Z,99.99
2017-04-08T01:27:40.230Z,99.99
2017-04-08T01:28:40.223Z,99.99
2017-04-08T01:29:40.190Z,99.99
2017-04-08T01:30:40.173Z,99.99
2017-04-08T01:31:40.190Z,99.99
2017-04-08T01:32:39.835Z,99.99
2017-04-08T01:33:39.824Z,99.99
2017-04-08T01:34:39.806Z,99.99
2017-04-08T01:35:40.083Z,99.99
2017-04-08T01:36:40.060Z,99.99
2017-04-08T01:37:40.041Z,99.99
2017-04-08T01:38:40.032Z,99.99
2017-04-08T01:39:39.708Z,99.99
2017-04-08T01:40:39.987Z,99.99
2017-04-08T01:41:39.662Z,99.99
2017-04-08T01:42:39.944Z,99.99
2017-04-08T01:43:39.944Z,99.99
2017-04-08T01:44:39.912Z,99.99
2017-04-08T01:45:39.901Z,99.99
2017-04-08T01:46:39.563Z,99.99
2017-04-08T01:47:39.869Z,99.99
2017-04-08T01:48:39.544Z,99.99
2017-04-08T01:49:39.517Z,99.99
2017-04-08T01:50:39.492Z,99.99
2017-04-08T01:51:39.790Z,99.99
2017-04-08T01:52:39.462Z,99.99
2017-04-08T01:53:39.742Z,99.99
2017-04-08T01:54:39.742Z,99.99
2017-04-08T01:55:39.725Z,99.99
2017-04-08T01:56:39.696Z,99.99
2017-04-08T01:57:39.683Z,99.99
2017-04-08T01:58:39.345Z,99.99
2017-04-08T01:59:39.633Z,99.99
2017-04-08T02:00:39.313Z,99.99
2017-04-08T02:01:39.594Z,99.99
2017-04-08T02:02:39.593Z,99.99
2017-04-08T02:03:39.562Z,99.99
2017-04-08T02:04:39.545Z,99.99
2017-04-08T02:05:39.223Z,99.99
2017-04-08T02:06:39.502Z,99.99
2017-04-08T02:07:39.182Z,99.99
2017-04-08T02:08:39.163Z,99.99
2017-04-08T02:09:39.143Z,99.99
2017-04-08T02:10:39.433Z,99.99
2017-04-08T02:11:39.103Z,99.99
2017-04-08T02:12:39.106Z,99.99
2017-04-08T02:13:39.073Z,99.99
2017-04-08T02:14:39.041Z,99.99
2017-04-08T02:15:39.344Z,99.99
2017-04-08T02:16:39.324Z,99.99
2017-04-08T02:17:38.995Z,99.99
2017-04-08T02:18:38.974Z,99.99
2017-04-08T02:19:39.264Z,99.99
2017-04-08T02:20:38.932Z,99.99
2017-04-08T02:21:38.914Z,99.99
2017-04-08T02:22:38.893Z,99.99
2017-04-08T02:23:38.885Z,99.99
2017-04-08T02:24:39.172Z,99.99
2017-04-08T02:25:38.856Z,99.99
2017-04-08T02:26:39.143Z,99.99
2017-04-08T02:27:39.122Z,99.99
2017-04-08T02:28:39.103Z,99.99
2017-04-08T02:29:38.769Z,99.99
2017-04-08T02:30:39.050Z,99.99
2017-04-08T02:31:39.035Z,99.99
2017-04-08T02:32:39.017Z,99.99
2017-04-08T02:33:39.014Z,99.99
2017-04-08T02:34:38.987Z,99.99
2017-04-08T02:35:38.984Z,99.99
2017-04-08T02:36:38.943Z,99.99
2017-04-08T02:37:38.922Z,99.99
2017-04-08T02:38:38.597Z,99.99
2017-04-08T02:39:38.881Z,99.99
2017-04-08T02:40:38.873Z,99.99
2017-04-08T02:41:38.875Z,99.99
2017-04-08T02:42:38.832Z,99.99
2017-04-08T02:43:38.833Z,99.99
2017-04-08T02:44:38.797Z,99.99
2017-04-08T02:45:38.775Z,99.99
2017-04-08T02:46:38.755Z,99.99
2017-04-08T02:47:38.727Z,99.99
2017-04-08T02:48:38.727Z,99.99
2017-04-08T02:49:38.712Z,99.99
2017-04-08T02:50:38.688Z,99.99
2017-04-08T02:51:38.693Z,99.99
2017-04-08T02:52:38.651Z,99.99
2017-04-08T02:53:38.625Z,99.99
2017-04-08T02:54:38.615Z,99.99
2017-04-08T02:55:38.585Z,99.99
2017-04-08T02:56:38.570Z,99.99
2017-04-08T02:57:38.546Z,99.99
2017-04-08T02:58:38.525Z,99.99
2017-04-08T02:59:38.520Z,99.99
2017-04-08T03:00:38.493Z,99.99
2017-04-08T03:01:38.528Z,99.99
2017-04-08T03:02:38.146Z,99.99
2017-04-08T03:03:38.440Z,99.99
2017-04-08T03:04:38.116Z,99.99
2017-04-08T03:05:38.083Z,99.99
2017-04-08T03:06:38.380Z,99.99
2017-04-08T03:07:38.053Z,99.99
2017-04-08T03:08:38.348Z,99.99
2017-04-08T03:09:38.327Z,99.99
2017-04-08T03:10:37.997Z,99.99
2017-04-08T03:11:38.281Z,99.99
2017-04-08T03:12:38.272Z,99.99
2017-04-08T03:13:38.247Z,99.99
2017-04-08T03:14:38.234Z,99.99
2017-04-08T03:15:37.903Z,99.99
2017-04-08T03:16:38.184Z,99.99
2017-04-08T03:17:38.173Z,99.99
2017-04-08T03:18:38.155Z,99.99
2017-04-08T03:19:38.137Z,99.99
2017-04-08T03:20:38.105Z,99.99
2017-04-08T03:21:37.787Z,99.99
2017-04-08T03:22:38.076Z,99.99
2017-04-08T03:23:38.065Z,99.99
2017-04-08T03:24:38.042Z,99.99
2017-04-08T03:25:37.713Z,99.99
2017-04-08T03:26:37.693Z,99.99
2017-04-08T03:27:37.675Z,99.99
2017-04-08T03:28:37.966Z,99.99
2017-04-08T03:29:37.945Z,99.99
2017-04-08T03:30:37.614Z,99.99
2017-04-08T03:31:37.903Z,99.99
2017-04-08T03:32:37.931Z,99.99
2017-04-08T03:33:37.866Z,99.99
2017-04-08T03:34:37.544Z,99.99
2017-04-08T03:35:37.825Z,99.99
2017-04-08T03:36:37.510Z,99.99
2017-04-08T03:37:37.483Z,99.99
2017-04-08T03:38:37.785Z,99.99
2017-04-08T03:39:37.454Z,99.99
2017-04-08T03:40:37.734Z,99.99
2017-04-08T03:41:37.403Z,99.99
2017-04-08T03:42:37.693Z,99.99
2017-04-08T03:43:37.376Z,99.99
2017-04-08T03:44:37.654Z,99.99
2017-04-08T03:45:37.642Z,99.99
2017-04-08T03:46:37.624Z,99.99
2017-04-08T03:47:37.292Z,99.99
2017-04-08T03:48:37.292Z,99.99
2017-04-08T03:49:37.563Z,99.99
2017-04-08T03:50:37.542Z,99.99
2017-04-08T03:51:37.523Z,99.99
2017-04-08T03:52:37.506Z,99.99
2017-04-08T03:53:37.494Z,99.99
2017-04-08T03:54:37.481Z,99.99
2017-04-08T03:55:37.148Z,99.99
2017-04-08T03:56:37.130Z,99.99
2017-04-08T03:57:37.413Z,99.99
2017-04-08T03:58:37.404Z,99.99
2017-04-08T03:59:37.384Z,99.99
2017-04-08T04:00:37.353Z,99.99
2017-04-08T04:01:37.030Z,99.99
2017-04-08T04:02:37.322Z,99.99
2017-04-08T04:03:37.301Z,99.99
2017-04-08T04:04:37.278Z,99.99
2017-04-08T04:05:36.963Z,99.99
2017-04-08T04:06:37.246Z,99.99
2017-04-08T04:07:37.222Z,99.99
2017-04-08T04:08:37.203Z,99.99
2017-04-08T04:09:37.186Z,99.99
2017-04-08T04:10:36.856Z,99.99
2017-04-08T04:11:37.153Z,99.99
2017-04-08T04:12:37.122Z,99.99
2017-04-08T04:13:37.102Z,99.99
2017-04-08T04:14:37.092Z,99.99
2017-04-08T04:15:37.120Z,99.99
2017-04-08T04:16:36.749Z,99.99
2017-04-08T04:17:36.724Z,99.99
2017-04-08T04:18:36.703Z,99.99
2017-04-08T04:19:36.682Z,99.99
2017-04-08T04:20:36.973Z,99.99
2017-04-08T04:21:36.954Z,99.99
2017-04-08T04:22:36.933Z,99.99
2017-04-08T04:23:36.611Z,99.99
2017-04-08T04:24:36.592Z,99.99
2017-04-08T04:25:36.881Z,99.99
2017-04-08T04:26:36.863Z,99.99
2017-04-08T04:27:36.847Z,99.99
2017-04-08T04:28:36.832Z,99.99
2017-04-08T04:29:36.501Z,99.99
2017-04-08T04:30:36.782Z,99.99
2017-04-08T04:31:36.454Z,99.99
2017-04-08T04:32:36.433Z,99.99
2017-04-08T04:33:36.413Z,99.99
2017-04-08T04:34:36.705Z,99.99
2017-04-08T04:35:36.373Z,99.99
2017-04-08T04:36:36.373Z,99.99
2017-04-08T04:37:36.642Z,99.99
2017-04-08T04:38:36.631Z,99.99
2017-04-08T04:39:36.621Z,99.99
2017-04-08T04:40:36.588Z,99.99
2017-04-08T04:41:36.574Z,99.99
2017-04-08T04:42:36.248Z,99.99
2017-04-08T04:43:36.226Z,99.99
2017-04-08T04:44:36.202Z,99.99
2017-04-08T04:45:36.489Z,99.99
2017-04-08T04:46:36.487Z,99.99
2017-04-08T04:47:36.502Z,99.99
2017-04-08T04:48:36.133Z,99.99
2017-04-08T04:49:36.458Z,99.99
2017-04-08T04:50:36.403Z,99.99
2017-04-08T04:51:36.393Z,99.99
2017-04-08T04:52:36.074Z,99.99
2017-04-08T04:53:36.033Z,99.99
2017-04-08T04:54:36.323Z,99.99
2017-04-08T04:55:35.994Z,99.99
2017-04-08T04:56:36.300Z,99.99
2017-04-08T04:57:36.270Z,99.99
2017-04-08T04:58:36.253Z,99.99
2017-04-08T04:59:35.914Z,99.99
2017-04-08T05:00:36.228Z,99.99
2017-04-08T05:01:36.186Z,99.99
2017-04-08T05:02:36.175Z,99.99
2017-04-08T05:03:36.167Z,99.99
2017-04-08T05:04:36.123Z,99.99
2017-04-08T05:05:36.136Z,99.99
2017-04-08T05:06:36.088Z,99.99
2017-04-08T05:07:35.772Z,99.99
2017-04-08T05:08:36.045Z,99.99
2017-04-08T05:09:36.032Z,99.99
2017-04-08T05:10:36.013Z,99.99
2017-04-08T05:11:35.992Z,99.99
2017-04-08T05:12:35.662Z,99.99
2017-04-08T05:13:35.644Z,99.99
2017-04-08T05:14:35.932Z,99.99
2017-04-08T05:15:35.612Z,99.99
2017-04-08T05:16:35.896Z,99.99
2017-04-08T05:17:35.871Z,99.99
2017-04-08T05:18:35.548Z,99.99
2017-04-08T05:19:35.843Z,99.99
2017-04-08T05:20:35.822Z,99.99
2017-04-08T05:21:35.797Z,99.99
2017-04-08T05:22:35.782Z,99.99
2017-04-08T05:23:35.773Z,99.99
2017-04-08T05:24:35.751Z,99.99
2017-04-08T05:25:35.413Z,99.99
2017-04-08T05:26:35.707Z,99.99
2017-04-08T05:27:35.692Z,99.99
2017-04-08T05:28:35.371Z,99.99
2017-04-08T05:29:35.643Z,99.99
2017-04-08T05:30:35.638Z,99.99
2017-04-08T05:31:35.309Z,99.99
2017-04-08T05:32:35.593Z,99.99
2017-04-08T05:33:35.572Z,99.99
2017-04-08T05:34:35.659Z,99.99
2017-04-08T05:35:35.532Z,99.99
2017-04-08T05:36:35.213Z,99.99
2017-04-08T05:37:35.498Z,99.99
2017-04-08T05:38:35.483Z,99.99
2017-04-08T05:39:35.451Z,99.99
2017-04-08T05:40:35.140Z,99.99
2017-04-08T05:41:35.111Z,99.99
2017-04-08T05:42:35.402Z,99.99
2017-04-08T05:43:35.394Z,99.99
2017-04-08T05:44:35.365Z,99.99
2017-04-08T05:45:35.342Z,99.99
2017-04-08T05:46:35.322Z,99.99
2017-04-08T05:47:35.006Z,99.99
2017-04-08T05:48:35.289Z,99.99
2017-04-08T05:49:35.269Z,99.99
2017-04-08T05:50:35.251Z,99.99
2017-04-08T05:51:35.232Z,99.99
2017-04-08T05:52:34.909Z,99.99
2017-04-08T05:53:35.202Z,99.99
2017-04-08T05:54:35.170Z,99.99
2017-04-08T05:55:34.841Z,99.99
2017-04-08T05:56:35.132Z,99.99
2017-04-08T05:57:35.125Z,99.99
2017-04-08T05:58:35.112Z,99.99
2017-04-08T05:59:35.103Z,99.99
2017-04-08T06:00:35.051Z,99.99
2017-04-08T06:01:35.063Z,99.99
2017-04-08T06:02:34.714Z,99.99
2017-04-08T06:03:35.092Z,99.99
2017-04-08T06:04:34.976Z,99.99
2017-04-08T06:05:34.972Z,99.99
2017-04-08T06:06:34.945Z,99.99
2017-04-08T06:07:34.940Z,99.99
2017-04-08T06:08:34.594Z,99.99
2017-04-08T06:09:34.903Z,99.99
2017-04-08T06:10:34.874Z,99.99
2017-04-08T06:11:34.878Z,99.99
2017-04-08T06:12:34.525Z,99.99
2017-04-08T06:13:34.856Z,99.99
2017-04-08T06:14:34.802Z,99.99
2017-04-08T06:15:34.467Z,99.99
2017-04-08T06:16:34.752Z,99.99
2017-04-08T06:17:34.741Z,99.99
2017-04-08T06:18:34.724Z,99.99
2017-04-08T06:19:34.443Z,99.99
2017-04-08T06:20:34.373Z,99.99
2017-04-08T06:21:34.713Z,99.99
2017-04-08T06:22:34.664Z,99.99
2017-04-08T06:23:34.619Z,99.99
2017-04-08T06:24:34.297Z,99.99
2017-04-08T06:25:34.583Z,99.99
2017-04-08T06:26:34.251Z,99.99
2017-04-08T06:27:34.570Z,99.99
2017-04-08T06:28:34.225Z,99.99
2017-04-08T06:29:34.512Z,99.99
2017-04-08T06:30:34.483Z,99.99
2017-04-08T06:31:34.160Z,99.99
2017-04-08T06:32:34.450Z,99.99
2017-04-08T06:33:34.123Z,99.99
2017-04-08T06:34:34.113Z,99.99
2017-04-08T06:35:34.383Z,99.99
2017-04-08T06:36:34.070Z,99.99
2017-04-08T06:37:34.351Z,99.99
2017-04-08T06:38:34.348Z,99.99
2017-04-08T06:39:34.018Z,99.99
2017-04-08T06:40:34.296Z,99.99
2017-04-08T06:41:33.972Z,99.99
2017-04-08T06:42:34.253Z,99.99
2017-04-08T06:43:34.241Z,99.99
2017-04-08T06:44:33.922Z,99.99
2017-04-08T06:45:33.893Z,99.99
2017-04-08T06:46:34.186Z,99.99
2017-04-08T06:47:34.182Z,99.99
2017-04-08T06:48:34.160Z,99.99
2017-04-08T06:49:33.824Z,99.99
2017-04-08T06:50:33.812Z,99.99
2017-04-08T06:51:34.093Z,99.99
2017-04-08T06:52:33.767Z,99.99
2017-04-08T06:53:34.053Z,99.99
2017-04-08T06:54:34.041Z,99.99
2017-04-08T06:55:34.023Z,99.99
2017-04-08T06:56:34.014Z,99.99
2017-04-08T06:57:33.982Z,99.99
2017-04-08T06:58:33.970Z,99.99
2017-04-08T06:59:33.945Z,99.99
2017-04-08T07:00:33.942Z,99.99
2017-04-08T07:01:33.907Z,99.99
2017-04-08T07:02:33.895Z,99.99
2017-04-08T07:03:33.864Z,99.99
2017-04-08T07:04:33.860Z,99.99
2017-04-08T07:05:33.840Z,99.99
2017-04-08T07:06:33.820Z,99.99
2017-04-08T07:07:33.794Z,99.99
2017-04-08T07:08:33.776Z,99.99
2017-04-08T07:09:33.452Z,99.99
2017-04-08T07:10:33.735Z,99.99
2017-04-08T07:11:33.724Z,99.99
2017-04-08T07:12:33.700Z,99.99
2017-04-08T07:13:33.696Z,99.99
2017-04-08T07:14:33.670Z,99.99
2017-04-08T07:15:33.334Z,99.99
2017-04-08T07:16:33.623Z,99.99
2017-04-08T07:17:33.614Z,99.99
2017-04-08T07:18:33.585Z,99.99
2017-04-08T07:19:33.582Z,99.99
2017-04-08T07:20:33.552Z,99.99
2017-04-08T07:21:33.538Z,99.99
2017-04-08T07:22:33.513Z,99.99
2017-04-08T07:23:33.491Z,99.99
2017-04-08T07:24:33.482Z,99.99
2017-04-08T07:25:33.461Z,99.99
2017-04-08T07:26:33.446Z,99.99
2017-04-08T07:27:33.119Z,99.99
2017-04-08T07:28:33.408Z,99.99
2017-04-08T07:29:33.383Z,99.99
2017-04-08T07:30:33.368Z,99.99
2017-04-08T07:31:33.353Z,99.99
2017-04-08T07:32:33.337Z,99.99
2017-04-08T07:33:33.003Z,99.99
2017-04-08T07:34:33.308Z,99.99
2017-04-08T07:35:32.979Z,99.99
2017-04-08T07:36:33.249Z,99.99
2017-04-08T07:37:32.944Z,99.99
2017-04-08T07:38:33.215Z,99.99
2017-04-08T07:39:33.203Z,99.99
2017-04-08T07:40:33.183Z,99.99
2017-04-08T07:41:32.866Z,99.99
2017-04-08T07:42:32.842Z,99.99
2017-04-08T07:43:32.875Z,99.99
2017-04-08T07:44:33.112Z,99.99
2017-04-08T07:45:32.788Z,99.81
2017-04-08T07:46:33.080Z,99.99
2017-04-08T07:47:33.065Z,99.99
2017-04-08T07:48:32.732Z,99.99
2017-04-08T07:49:33.025Z,99.99
2017-04-08T07:50:33.002Z,99.99
2017-04-08T07:51:32.984Z,99.99
2017-04-08T07:52:32.970Z,99.99
2017-04-08T07:53:32.649Z,99.99
2017-04-08T07:54:32.943Z,99.99
2017-04-08T07:55:32.715Z,99.99
2017-04-08T07:56:32.893Z,99.24
2017-04-08T07:57:32.882Z,98.66
2017-04-08T07:58:32.862Z,98.18
2017-04-08T07:59:32.852Z,97.99
2017-04-08T08:00:32.515Z,98.28
2017-04-08T08:01:32.802Z,98.85
2017-04-08T08:02:32.478Z,98.57
2017-04-08T08:03:32.763Z,98.18
2017-04-08T08:04:32.753Z,97.61
2017-04-08T08:05:32.460Z,96.94
2017-04-08T08:06:32.724Z,97.42
2017-04-08T08:07:32.713Z,97.23
2017-04-08T08:08:32.682Z,97.56
2017-04-08T08:09:32.363Z,96.89
2017-04-08T08:10:32.655Z,96.8
2017-04-08T08:11:32.312Z,96.61
2017-04-08T08:12:32.606Z,95.75
2017-04-08T08:13:32.292Z,96.03
2017-04-08T08:14:32.270Z,95.94
2017-04-08T08:15:32.562Z,96.03
2017-04-08T08:16:32.545Z,96.32
2017-04-08T08:17:32.214Z,96.7
2017-04-08T08:18:32.202Z,96.13
2017-04-08T08:19:32.482Z,96.13
2017-04-08T08:20:32.457Z,96.03
2017-04-08T08:21:32.465Z,95.46
2017-04-08T08:22:32.430Z,95.65
2017-04-08T08:23:32.433Z,95.56
2017-04-08T08:24:32.395Z,95.17
2017-04-08T08:25:32.071Z,94.79
2017-04-08T08:26:32.363Z,95.36
2017-04-08T08:27:32.035Z,95.07
2017-04-08T08:28:32.324Z,94.41
2017-04-08T08:29:32.315Z,93.55
2017-04-08T08:30:32.292Z,93.45
2017-04-08T08:31:32.275Z,93.45
2017-04-08T08:32:32.263Z,93.69
2017-04-08T08:33:31.940Z,94.17
2017-04-08T08:34:31.920Z,93.88
2017-04-08T08:35:31.903Z,93.5
2017-04-08T08:36:32.210Z,92.44
2017-04-08T08:37:32.184Z,92.92
2017-04-08T08:38:32.154Z,92.54
2017-04-08T08:39:32.147Z,92.16
2017-04-08T08:40:32.127Z,92.54
2017-04-08T08:41:32.112Z,92.25
2017-04-08T08:42:32.091Z,91.49
2017-04-08T08:43:31.771Z,91.58
2017-04-08T08:44:31.752Z,90.91
2017-04-08T08:45:31.731Z,89.38
2017-04-08T08:46:32.024Z,89.58
2017-04-08T08:47:31.715Z,89.19
2017-04-08T08:48:31.993Z,89.09
2017-04-08T08:49:31.992Z,89.58
2017-04-08T08:50:31.654Z,89.58
2017-04-08T08:51:31.934Z,89.86
2017-04-08T08:52:31.916Z,90.24
2017-04-08T08:53:31.913Z,89.95
2017-04-08T08:54:31.584Z,90.05
2017-04-08T08:55:31.562Z,89.86
2017-04-08T08:56:31.863Z,89.76
2017-04-08T08:57:31.822Z,90.05
2017-04-08T08:58:31.821Z,91.39
2017-04-08T08:59:31.794Z,92.44
2017-04-08T09:00:31.493Z,91.3
2017-04-08T09:01:31.775Z,90.44
2017-04-08T09:02:31.759Z,89.67
2017-04-08T09:03:31.744Z,88.71
2017-04-08T09:04:31.722Z,88.9
2017-04-08T09:05:31.713Z,88.71
2017-04-08T09:06:31.692Z,88.52
2017-04-08T09:07:31.675Z,88.76
2017-04-08T09:08:31.658Z,89.9
2017-04-08T09:09:31.708Z,89.52
2017-04-08T09:10:31.614Z,89.14
2017-04-08T09:11:31.603Z,88.66
2017-04-08T09:12:31.585Z,88.37
2017-04-08T09:13:31.584Z,88.51
2017-04-08T09:14:31.555Z,87.46
2017-04-08T09:15:31.240Z,86.98
2017-04-08T09:16:31.520Z,86.31
2017-04-08T09:17:31.525Z,86.21
2017-04-08T09:18:31.179Z,86.69
2017-04-08T09:19:31.588Z,87.17
2017-04-08T09:20:31.456Z,88.03
2017-04-08T09:21:31.465Z,86.98
2017-04-08T09:22:31.439Z,86.6
2017-04-08T09:23:31.144Z,87.08
2017-04-08T09:24:31.383Z,87.17
2017-04-08T09:25:31.385Z,86.69
2017-04-08T09:26:31.366Z,86.21
2017-04-08T09:27:31.045Z,85.74
2017-04-08T09:28:31.323Z,85.45
2017-04-08T09:29:31.363Z,86.02
2017-04-08T09:30:31.297Z,86.31
2017-04-08T09:31:31.278Z,86.21
2017-04-08T09:32:31.258Z,85.83
2017-04-08T09:33:31.252Z,84.78
2017-04-08T09:34:30.923Z,83.58
2017-04-08T09:35:31.287Z,83.72
2017-04-08T09:36:31.214Z,83.92
2017-04-08T09:37:31.239Z,85.45
2017-04-08T09:38:31.182Z,85.35
2017-04-08T09:39:30.913Z,84.2
2017-04-08T09:40:30.818Z,84.11
2017-04-08T09:41:31.110Z,83.53
2017-04-08T09:42:30.789Z,83.53
2017-04-08T09:43:31.113Z,83.34
2017-04-08T09:44:31.143Z,83.25
2017-04-08T09:45:31.162Z,82.38
2017-04-08T09:46:31.076Z,82.38
2017-04-08T09:47:31.035Z,82.19
2017-04-08T09:48:30.997Z,82.29
2017-04-08T09:49:30.981Z,82.19
2017-04-08T09:50:31.014Z,81.62
2017-04-08T09:51:30.953Z,81.62
2017-04-08T09:52:31.043Z,81.33
2017-04-08T09:53:30.920Z,81.81
2017-04-08T09:54:31.001Z,81.81
2017-04-08T09:55:30.884Z,81.23
2017-04-08T09:56:30.931Z,80.85
2017-04-08T09:57:30.545Z,80.56
2017-04-08T09:58:30.883Z,80.76
2017-04-08T09:59:30.811Z,80.66
2017-04-08T10:00:30.812Z,80.94
2017-04-08T10:01:30.482Z,81.33
2017-04-08T10:02:30.462Z,81.62
2017-04-08T10:03:30.453Z,81.27
2017-04-08T10:04:30.746Z,81.71
2017-04-08T10:05:30.719Z,81.52
2017-04-08T10:06:30.405Z,81.9
2017-04-08T10:07:30.691Z,81.62
2017-04-08T10:08:30.740Z,81.81
2017-04-08T10:09:30.663Z,81.9
2017-04-08T10:10:30.652Z,81.71
2017-04-08T10:11:30.325Z,82.04
2017-04-08T10:12:30.695Z,81.71
2017-04-08T10:13:30.286Z,82.19
2017-04-08T10:14:30.613Z,82.62
2017-04-08T10:15:30.563Z,82.14
2017-04-08T10:16:30.561Z,81.62
2017-04-08T10:17:30.531Z,82.76
2017-04-08T10:18:30.512Z,82.19
2017-04-08T10:19:30.502Z,82.14
2017-04-08T10:20:30.481Z,83.19
2017-04-08T10:21:30.170Z,82.04
2017-04-08T10:22:30.469Z,81.75
2017-04-08T10:23:30.434Z,82.04
2017-04-08T10:24:30.433Z,81.75
2017-04-08T10:25:30.404Z,81.89
2017-04-08T10:26:30.089Z,81.22
2017-04-08T10:27:30.375Z,80.64
2017-04-08T10:28:30.378Z,80.74
2017-04-08T10:29:30.351Z,81.95
2017-04-08T10:30:30.034Z,80.83
2017-04-08T10:31:30.312Z,81.31
2017-04-08T10:32:30.294Z,81.22
2017-04-08T10:33:30.283Z,80.45
2017-04-08T10:34:29.964Z,79.78
2017-04-08T10:35:30.274Z,80.35
2017-04-08T10:36:30.240Z,80.26
2017-04-08T10:37:30.235Z,80.26
2017-04-08T10:38:30.212Z,80.93
2017-04-08T10:39:30.189Z,81.6
2017-04-08T10:40:30.177Z,81.12
2017-04-08T10:41:29.858Z,79.68
2017-04-08T10:42:30.143Z,79.83
2017-04-08T10:43:30.124Z,79.88
2017-04-08T10:44:30.114Z,79.78
2017-04-08T10:45:30.105Z,80.07
2017-04-08T10:46:30.093Z,79.24
2017-04-08T10:47:30.073Z,78.96
2017-04-08T10:48:30.073Z,79.14
2017-04-08T10:49:30.037Z,79.05
2017-04-08T10:50:30.022Z,78.67
2017-04-08T10:51:30.004Z,79.34
2017-04-08T10:52:29.684Z,79.96
2017-04-08T10:53:29.985Z,78.9
2017-04-08T10:54:29.979Z,78.86
2017-04-08T10:55:29.954Z,79.44
2017-04-08T10:56:29.944Z,78.47
2017-04-08T10:57:29.924Z,79.14
2017-04-08T10:58:29.904Z,78.86
2017-04-08T10:59:29.892Z,78.38
2017-04-08T11:00:29.869Z,78.28
2017-04-08T11:01:29.561Z,77.8
2017-04-08T11:02:29.854Z,77.8
2017-04-08T11:03:29.842Z,78.28
2017-04-08T11:04:29.809Z,79.05
2017-04-08T11:05:29.795Z,77.71
2017-04-08T11:06:29.491Z,76.84
2017-04-08T11:07:29.465Z,76.37
2017-04-08T11:08:29.750Z,76.79
2017-04-08T11:09:29.747Z,76.5
2017-04-08T11:10:29.466Z,76.4
2017-04-08T11:11:29.714Z,75.92
2017-04-08T11:12:29.696Z,75.82
2017-04-08T11:13:29.384Z,75.6
2017-04-08T11:14:29.693Z,75.12
2017-04-08T11:15:29.366Z,74.83
2017-04-08T11:16:29.643Z,74.83
2017-04-08T11:17:29.633Z,74.93
2017-04-08T11:18:29.303Z,74.26
2017-04-08T11:19:29.614Z,75.85
2017-04-08T11:20:29.585Z,76.29
2017-04-08T11:21:29.576Z,76.57
2017-04-08T11:22:29.246Z,77.25
2017-04-08T11:23:29.240Z,76.62
2017-04-08T11:24:29.222Z,76.52
2017-04-08T11:25:29.534Z,76.71
2017-04-08T11:26:29.564Z,76.75
2017-04-08T11:27:29.471Z,76.14
2017-04-08T11:28:29.177Z,75.18
2017-04-08T11:29:29.141Z,75.37
2017-04-08T11:30:29.432Z,75.18
2017-04-08T11:31:29.110Z,75.85
2017-04-08T11:32:29.424Z,76.67
2017-04-08T11:33:29.487Z,77.06
2017-04-08T11:34:29.078Z,76.42
2017-04-08T11:35:29.365Z,76.81
2017-04-08T11:36:29.415Z,75.79
2017-04-08T11:37:29.337Z,75.31
2017-04-08T11:38:29.433Z,74.93
2017-04-08T11:39:29.412Z,73.62
2017-04-08T11:40:29.299Z,72.81
2017-04-08T11:41:29.273Z,72.63
2017-04-08T11:42:29.273Z,73.1
2017-04-08T11:43:29.247Z,74.35
2017-04-08T11:44:28.998Z,74.44
2017-04-08T11:45:29.205Z,74.31
2017-04-08T11:46:29.197Z,75.27
2017-04-08T11:47:28.877Z,76.23
2017-04-08T11:48:29.233Z,76.42
2017-04-08T11:49:29.194Z,76.14
2017-04-08T11:50:29.181Z,74.93
2017-04-08T11:51:29.116Z,74.64
2017-04-08T11:52:29.163Z,74.44
2017-04-08T11:53:29.201Z,74.54
2017-04-08T11:54:29.091Z,74.1
2017-04-08T11:55:29.114Z,74.26
2017-04-08T11:56:29.052Z,73.33
2017-04-08T11:57:29.083Z,72.66
2017-04-08T11:58:29.018Z,72.63
2017-04-08T11:59:29.040Z,72.37
2017-04-08T12:00:28.985Z,72.75
2017-04-08T12:01:28.987Z,72.28
2017-04-08T12:02:28.953Z,72.75
2017-04-08T12:03:28.995Z,72.08
2017-04-08T12:04:28.913Z,72.05
2017-04-08T12:05:28.923Z,72.53
2017-04-08T12:06:28.894Z,72.72
2017-04-08T12:07:28.868Z,72.63
2017-04-08T12:08:28.877Z,72.72
2017-04-08T12:09:28.944Z,72.72
2017-04-08T12:10:28.523Z,71.95
2017-04-08T12:11:28.515Z,72.91
2017-04-08T12:12:28.801Z,73.04
2017-04-08T12:13:28.811Z,72.37
2017-04-08T12:14:28.462Z,71.89
2017-04-08T12:15:28.763Z,71.89
2017-04-08T12:16:28.433Z,72.43
2017-04-08T12:17:28.427Z,72.56
2017-04-08T12:18:28.722Z,72.56
2017-04-08T12:19:28.709Z,72.47
2017-04-08T12:20:28.681Z,72.18
2017-04-08T12:21:28.682Z,72.75
2017-04-08T12:22:28.662Z,73.04
2017-04-08T12:23:28.644Z,73.33
2017-04-08T12:24:28.622Z,73.14
2017-04-08T12:25:28.616Z,72.41
2017-04-08T12:26:28.301Z,71.45
2017-04-08T12:27:28.589Z,72.02
2017-04-08T12:28:28.576Z,70.72
2017-04-08T12:29:28.562Z,71.39
2017-04-08T12:30:28.546Z,69.95
2017-04-08T12:31:28.530Z,69.27
2017-04-08T12:32:28.522Z,69.27
2017-04-08T12:33:28.500Z,68.66
2017-04-08T12:34:28.492Z,68.57
2017-04-08T12:35:28.476Z,69.43
2017-04-08T12:36:28.139Z,69.43
2017-04-08T12:37:28.441Z,69.24
2017-04-08T12:38:28.433Z,69.53
2017-04-08T12:39:28.419Z,70.55
2017-04-08T12:40:28.092Z,71.31
2017-04-08T12:41:28.380Z,70.17
2017-04-08T12:42:28.364Z,69.68
2017-04-08T12:43:28.358Z,69.11
2017-04-08T12:44:28.344Z,69.2
2017-04-08T12:45:28.022Z,69.36
2017-04-08T12:46:28.317Z,69.68
2017-04-08T12:47:28.286Z,70.13
2017-04-08T12:48:28.285Z,70.8
2017-04-08T12:49:27.965Z,70.51
2017-04-08T12:50:28.262Z,71.57
2017-04-08T12:51:28.244Z,71.37
2017-04-08T12:52:27.915Z,71.37
2017-04-08T12:53:28.207Z,72.14